Aérodrome :
LOGIN :

S'inscrire | Disclaimer

   EN    FR    IT 

 










Légende :    VFR   VFR Marginal   IFR   IFR Intensif   IFR Très Intensif
Visi : 
Plafond : 
>= 8 km
>= 3000ft
5 à 8 km
1000 à 3000 ft
1500m à 5 km
500 à 1000 ft
800 à 1500m
200 à 500 ft
< 800m
< 200 ft
Symboles :   Orages  Brouillard  Fortes neiges  Fortes précipitations  Vent > 20 kt
SIGMETs :   Divers  Orages  Givrage  Turbulence  Onde Orograph.  Cendres Volcan.







- Altitude de l'aérodrome : 287 ft
- Voir les cartes d'approche


LFRL - Lanveoc Poulmic

DERNIER METAR :
  • 151130Z AUTO 14008KT 120V180 4200 BR OVC003 13/13 Q1017 NOSIG

METARs EXPIRÉS :
  • 151100Z AUTO 15008KT 4900 0150 R23/M0200 R05/P2000 BCFG OVC003 13/13 Q1017 BECMG 5000 BR SCT005 OVC012
  • 151030Z AUTO 16007KT 110V180 6000 OVC004 13/13 Q1017 BECMG SCT005 OVC012
  • 151000Z AUTO 14009KT 5000 BR OVC004 13/13 Q1017 BECMG SCT005 OVC012
  • 150930Z AUTO 13006KT 100V160 5000 BR OVC003 12/12 Q1017 BECMG SCT005 OVC012
  • 150900Z AUTO 11006KT 1200 1100 R23/1500U R05/1600U BR VV/// 12/12 Q1017 BECMG 4000 BR OVC002

TAF TAF LFRL
Valide du 15 à 12h jusqu'au 16 à 12h UTC


151100Z 1512/1612 14010KT 5000 OVC005
TEMPO 1512/1611 3000 BR OVC003
PROB40
TEMPO 1518/1610 0500 FG VV///
Pas de NOTAMs connus pour ce terrain.



MET'MAP, la Météo Aéronautique d'un coup d'oeil ! - Copyright ORBIFLY Décembre 2007 - Disclaimer

ORBIFLY MET'MAP TEAM :

Programmation & Développement : Alexandra Zaïnal
Conception & Développement : Baudouin d'Aumeries
Co-Programmation & Développement : Marc-Olivier Méhu
Soutien technique & logistique : Manuel Goepfert

Contact : metmap@orbifly.com




SOURCES & CREDITS :

   NOAA